sensor_id;sensor_type;location;lat;lon;timestamp;pressure;altitude;pressure_sealevel;temperature;humidity
22862;BME280;11598;50.652;6.172;2023-12-20T00:02:14;96409.19;;;4.77;100.00
22862;BME280;11598;50.652;6.172;2023-12-20T00:12:14;96400.50;;;4.80;100.00
22862;BME280;11598;50.652;6.172;2023-12-20T00:22:15;96409.81;;;4.82;100.00
22862;BME280;11598;50.652;6.172;2023-12-20T00:32:16;96415.78;;;4.83;100.00
22862;BME280;11598;50.652;6.172;2023-12-20T00:42:16;96412.47;;;4.81;100.00
22862;BME280;11598;50.652;6.172;2023-12-20T00:52:18;96426.25;;;4.80;100.00
22862;BME280;11598;50.652;6.172;2023-12-20T01:02:19;96467.81;;;4.72;100.00
22862;BME280;11598;50.652;6.172;2023-12-20T01:12:19;96483.19;;;4.39;100.00
22862;BME280;11598;50.652;6.172;2023-12-20T01:22:20;96490.41;;;3.96;100.00
22862;BME280;11598;50.652;6.172;2023-12-20T01:32:20;96492.06;;;3.60;100.00
22862;BME280;11598;50.652;6.172;2023-12-20T01:42:21;96504.97;;;3.40;100.00
22862;BME280;11598;50.652;6.172;2023-12-20T01:52:22;96497.00;;;3.27;100.00
22862;BME280;11598;50.652;6.172;2023-12-20T02:02:23;96510.81;;;3.25;100.00
22862;BME280;11598;50.652;6.172;2023-12-20T02:12:23;96498.09;;;3.22;100.00
22862;BME280;11598;50.652;6.172;2023-12-20T02:22:23;96513.78;;;3.15;100.00
22862;BME280;11598;50.652;6.172;2023-12-20T02:32:24;96512.88;;;3.16;100.00
22862;BME280;11598;50.652;6.172;2023-12-20T02:42:28;96512.94;;;3.15;100.00
22862;BME280;11598;50.652;6.172;2023-12-20T02:52:28;96508.00;;;3.10;100.00
22862;BME280;11598;50.652;6.172;2023-12-20T03:02:29;96502.03;;;3.10;100.00
22862;BME280;11598;50.652;6.172;2023-12-20T03:12:29;96515.84;;;3.07;100.00
22862;BME280;11598;50.652;6.172;2023-12-20T03:22:30;96503.94;;;3.06;100.00
22862;BME280;11598;50.652;6.172;2023-12-20T03:32:30;96514.06;;;3.09;100.00
22862;BME280;11598;50.652;6.172;2023-12-20T03:42:30;96509.94;;;3.05;100.00
22862;BME280;11598;50.652;6.172;2023-12-20T03:52:31;96506.59;;;3.03;100.00
22862;BME280;11598;50.652;6.172;2023-12-20T04:02:31;96490.53;;;3.00;100.00
22862;BME280;11598;50.652;6.172;2023-12-20T04:12:32;96498.28;;;2.98;100.00
22862;BME280;11598;50.652;6.172;2023-12-20T04:22:33;96494.06;;;2.97;100.00
22862;BME280;11598;50.652;6.172;2023-12-20T04:32:33;96490.47;;;3.01;100.00
22862;BME280;11598;50.652;6.172;2023-12-20T04:42:33;96495.59;;;3.01;100.00
22862;BME280;11598;50.652;6.172;2023-12-20T04:52:34;96499.19;;;2.97;100.00
22862;BME280;11598;50.652;6.172;2023-12-20T05:02:35;96515.56;;;2.94;100.00
22862;BME280;11598;50.652;6.172;2023-12-20T05:12:36;96517.22;;;2.95;100.00
22862;BME280;11598;50.652;6.172;2023-12-20T05:22:36;96517.16;;;2.97;100.00
22862;BME280;11598;50.652;6.172;2023-12-20T05:32:36;96494.94;;;2.96;100.00
22862;BME280;11598;50.652;6.172;2023-12-20T05:42:37;96508.69;;;2.95;100.00
22862;BME280;11598;50.652;6.172;2023-12-20T05:52:40;96515.63;;;2.93;100.00
22862;BME280;11598;50.652;6.172;2023-12-20T06:02:41;96516.84;;;2.84;100.00
22862;BME280;11598;50.652;6.172;2023-12-20T06:12:41;96520.38;;;2.82;100.00
22862;BME280;11598;50.652;6.172;2023-12-20T06:22:42;96525.59;;;2.80;100.00
22862;BME280;11598;50.652;6.172;2023-12-20T06:32:42;96524.81;;;2.78;100.00
22862;BME280;11598;50.652;6.172;2023-12-20T06:42:43;96535.13;;;2.77;100.00
22862;BME280;11598;50.652;6.172;2023-12-20T06:52:43;96529.16;;;2.76;100.00
22862;BME280;11598;50.652;6.172;2023-12-20T07:02:44;96540.31;;;2.75;100.00
22862;BME280;11598;50.652;6.172;2023-12-20T07:12:44;96535.50;;;2.67;100.00
22862;BME280;11598;50.652;6.172;2023-12-20T07:22:45;96541.41;;;2.69;100.00
22862;BME280;11598;50.652;6.172;2023-12-20T07:32:45;96527.81;;;2.67;100.00
22862;BME280;11598;50.652;6.172;2023-12-20T07:42:45;96540.59;;;2.69;100.00
22862;BME280;11598;50.652;6.172;2023-12-20T07:52:46;96536.34;;;2.68;100.00
22862;BME280;11598;50.652;6.172;2023-12-20T08:02:46;96549.25;;;2.66;100.00
22862;BME280;11598;50.652;6.172;2023-12-20T08:12:46;96554.28;;;2.68;100.00
22862;BME280;11598;50.652;6.172;2023-12-20T08:22:47;96544.94;;;2.67;100.00
22862;BME280;11598;50.652;6.172;2023-12-20T08:32:48;96541.22;;;2.74;100.00
22862;BME280;11598;50.652;6.172;2023-12-20T08:42:48;96526.47;;;2.79;100.00
22862;BME280;11598;50.652;6.172;2023-12-20T08:52:49;96533.13;;;2.83;100.00
22862;BME280;11598;50.652;6.172;2023-12-20T09:02:50;96548.47;;;2.85;100.00
22862;BME280;11598;50.652;6.172;2023-12-20T09:12:51;96541.66;;;2.84;100.00
22862;BME280;11598;50.652;6.172;2023-12-20T09:22:56;96543.25;;;2.86;100.00
22862;BME280;11598;50.652;6.172;2023-12-20T09:32:56;96554.53;;;2.82;100.00
22862;BME280;11598;50.652;6.172;2023-12-20T09:42:58;96544.22;;;2.84;100.00
22862;BME280;11598;50.652;6.172;2023-12-20T09:53:04;96546.03;;;2.82;100.00
22862;BME280;11598;50.652;6.172;2023-12-20T10:03:06;96571.63;;;2.83;100.00
22862;BME280;11598;50.652;6.172;2023-12-20T10:13:11;96545.97;;;2.83;100.00
22862;BME280;11598;50.652;6.172;2023-12-20T10:23:12;96539.88;;;2.86;100.00
22862;BME280;11598;50.652;6.172;2023-12-20T10:33:13;96528.44;;;2.93;100.00
22862;BME280;11598;50.652;6.172;2023-12-20T10:43:14;96510.84;;;3.04;100.00
22862;BME280;11598;50.652;6.172;2023-12-20T10:53:16;96506.41;;;3.08;100.00
22862;BME280;11598;50.652;6.172;2023-12-20T11:03:17;96502.13;;;3.08;100.00
22862;BME280;11598;50.652;6.172;2023-12-20T11:13:30;96498.59;;;3.11;100.00
22862;BME280;11598;50.652;6.172;2023-12-20T11:23:32;96510.47;;;3.13;100.00
22862;BME280;11598;50.652;6.172;2023-12-20T11:33:37;96484.69;;;3.15;100.00
22862;BME280;11598;50.652;6.172;2023-12-20T11:43:39;96480.34;;;3.17;100.00
22862;BME280;11598;50.652;6.172;2023-12-20T11:53:42;96486.19;;;3.21;100.00
22862;BME280;11598;50.652;6.172;2023-12-20T12:03:43;96473.25;;;3.22;100.00
22862;BME280;11598;50.652;6.172;2023-12-20T12:13:43;96459.31;;;3.28;100.00
22862;BME280;11598;50.652;6.172;2023-12-20T12:23:43;96443.84;;;3.29;100.00
22862;BME280;11598;50.652;6.172;2023-12-20T12:33:44;96439.34;;;3.34;100.00
22862;BME280;11598;50.652;6.172;2023-12-20T12:43:44;96438.41;;;3.35;100.00
22862;BME280;11598;50.652;6.172;2023-12-20T12:53:45;96417.81;;;3.37;100.00
22862;BME280;11598;50.652;6.172;2023-12-20T13:03:45;96412.53;;;3.40;100.00
22862;BME280;11598;50.652;6.172;2023-12-20T13:13:46;96400.47;;;3.42;100.00
22862;BME280;11598;50.652;6.172;2023-12-20T13:23:46;96395.47;;;3.39;100.00
22862;BME280;11598;50.652;6.172;2023-12-20T13:33:47;96386.78;;;3.42;100.00
22862;BME280;11598;50.652;6.172;2023-12-20T13:43:47;96367.06;;;3.42;100.00
22862;BME280;11598;50.652;6.172;2023-12-20T13:53:48;96370.31;;;3.46;100.00
22862;BME280;11598;50.652;6.172;2023-12-20T14:03:48;96342.91;;;3.46;100.00
22862;BME280;11598;50.652;6.172;2023-12-20T14:13:50;96333.31;;;3.50;100.00
22862;BME280;11598;50.652;6.172;2023-12-20T14:23:50;96328.16;;;3.50;100.00
22862;BME280;11598;50.652;6.172;2023-12-20T14:33:52;96325.47;;;3.53;100.00
22862;BME280;11598;50.652;6.172;2023-12-20T14:43:53;96319.25;;;3.57;100.00
22862;BME280;11598;50.652;6.172;2023-12-20T14:53:54;96316.63;;;3.58;100.00
22862;BME280;11598;50.652;6.172;2023-12-20T15:03:54;96325.91;;;3.61;100.00
22862;BME280;11598;50.652;6.172;2023-12-20T15:13:56;96325.75;;;3.64;100.00
22862;BME280;11598;50.652;6.172;2023-12-20T15:23:57;96309.44;;;3.65;100.00
22862;BME280;11598;50.652;6.172;2023-12-20T15:34:05;96317.81;;;3.69;100.00
22862;BME280;11598;50.652;6.172;2023-12-20T15:44:05;96319.34;;;3.73;100.00
22862;BME280;11598;50.652;6.172;2023-12-20T15:54:06;96320.88;;;3.77;100.00
22862;BME280;11598;50.652;6.172;2023-12-20T16:04:08;96314.69;;;3.81;100.00
22862;BME280;11598;50.652;6.172;2023-12-20T16:14:08;96311.13;;;3.84;100.00
22862;BME280;11598;50.652;6.172;2023-12-20T16:24:13;96313.34;;;3.90;100.00
22862;BME280;11598;50.652;6.172;2023-12-20T16:34:13;96315.88;;;3.91;100.00
22862;BME280;11598;50.652;6.172;2023-12-20T16:44:14;96293.41;;;3.95;100.00
22862;BME280;11598;50.652;6.172;2023-12-20T16:54:14;96270.19;;;3.96;100.00
22862;BME280;11598;50.652;6.172;2023-12-20T17:04:14;96258.03;;;4.00;100.00
22862;BME280;11598;50.652;6.172;2023-12-20T17:14:15;96263.81;;;4.03;100.00
22862;BME280;11598;50.652;6.172;2023-12-20T17:24:16;96246.59;;;4.06;100.00
22862;BME280;11598;50.652;6.172;2023-12-20T17:34:16;96216.31;;;4.11;100.00
22862;BME280;11598;50.652;6.172;2023-12-20T17:44:17;96219.66;;;4.13;100.00
22862;BME280;11598;50.652;6.172;2023-12-20T17:54:17;96220.34;;;4.16;100.00
22862;BME280;11598;50.652;6.172;2023-12-20T18:04:17;96207.31;;;4.19;100.00
22862;BME280;11598;50.652;6.172;2023-12-20T18:14:20;96210.38;;;4.26;100.00
22862;BME280;11598;50.652;6.172;2023-12-20T18:24:22;96177.72;;;4.28;100.00
22862;BME280;11598;50.652;6.172;2023-12-20T18:34:23;96180.09;;;4.31;100.00
22862;BME280;11598;50.652;6.172;2023-12-20T18:44:25;96150.06;;;4.32;100.00
22862;BME280;11598;50.652;6.172;2023-12-20T18:54:25;96145.69;;;4.34;100.00
22862;BME280;11598;50.652;6.172;2023-12-20T19:04:26;96147.16;;;4.38;100.00
22862;BME280;11598;50.652;6.172;2023-12-20T19:14:26;96144.50;;;4.39;100.00
22862;BME280;11598;50.652;6.172;2023-12-20T19:24:26;96127.16;;;4.43;100.00
22862;BME280;11598;50.652;6.172;2023-12-20T19:34:27;96127.09;;;4.44;100.00
22862;BME280;11598;50.652;6.172;2023-12-20T19:44:27;96125.25;;;4.47;100.00
22862;BME280;11598;50.652;6.172;2023-12-20T19:54:27;96099.44;;;4.48;100.00
22862;BME280;11598;50.652;6.172;2023-12-20T20:04:28;96073.53;;;4.51;100.00
22862;BME280;11598;50.652;6.172;2023-12-20T20:14:28;96069.06;;;4.55;100.00
22862;BME280;11598;50.652;6.172;2023-12-20T20:24:29;96054.53;;;4.54;100.00
22862;BME280;11598;50.652;6.172;2023-12-20T20:34:29;96037.25;;;4.56;100.00
22862;BME280;11598;50.652;6.172;2023-12-20T20:44:29;96001.91;;;4.59;100.00
22862;BME280;11598;50.652;6.172;2023-12-20T20:54:30;95995.84;;;4.60;100.00
22862;BME280;11598;50.652;6.172;2023-12-20T21:04:30;95998.31;;;4.62;100.00
22862;BME280;11598;50.652;6.172;2023-12-20T21:14:31;95976.72;;;4.64;100.00
22862;BME280;11598;50.652;6.172;2023-12-20T21:24:32;96006.41;;;4.70;100.00
22862;BME280;11598;50.652;6.172;2023-12-20T21:34:35;95983.84;;;4.75;100.00
22862;BME280;11598;50.652;6.172;2023-12-20T21:44:36;95962.13;;;4.79;100.00
22862;BME280;11598;50.652;6.172;2023-12-20T21:54:36;95956.72;;;4.84;100.00
22862;BME280;11598;50.652;6.172;2023-12-20T22:04:37;95931.63;;;4.87;100.00
22862;BME280;11598;50.652;6.172;2023-12-20T22:14:38;95921.97;;;4.91;100.00
22862;BME280;11598;50.652;6.172;2023-12-20T22:24:38;95934.66;;;4.94;100.00
22862;BME280;11598;50.652;6.172;2023-12-20T22:34:38;95942.13;;;4.99;100.00
22862;BME280;11598;50.652;6.172;2023-12-20T22:44:39;95945.41;;;5.01;100.00
22862;BME280;11598;50.652;6.172;2023-12-20T22:54:39;95928.84;;;5.05;100.00
22862;BME280;11598;50.652;6.172;2023-12-20T23:04:39;95914.06;;;5.08;100.00
22862;BME280;11598;50.652;6.172;2023-12-20T23:14:40;95906.22;;;5.10;100.00
22862;BME280;11598;50.652;6.172;2023-12-20T23:24:41;95882.75;;;5.15;100.00
22862;BME280;11598;50.652;6.172;2023-12-20T23:34:41;95872.19;;;5.19;100.00
22862;BME280;11598;50.652;6.172;2023-12-20T23:44:42;95837.69;;;5.22;100.00
22862;BME280;11598;50.652;6.172;2023-12-20T23:54:43;95814.41;;;5.23;100.00
